Blue Galaxy — SWDA — position and weather

sailwx.info

Track history (hours):
 
Tides and Currents Weather Stations Pressure Air Temp Water Temp Dewpoint Dewpoint Depression Visibility Wind Speed Wind Dir Waves Ship Positions

Blue Galaxy

Last reported at 2015-Aug-03 04:34 UTC. Time now 2015-Aug-03 04:35 UTC.
Position N 37°57' E 023°38'.

Length 192 m; draft 6.7 m.

Type: Passenger vessel. MMSI: 239672000.

Date/timePositionNaut miles runAvg speedWind from/ knotsBaromVisibWave heightAir tempDewpointWater temp
2015-Aug-03 04:34N 37°57' E 023°38'0 0.0
2015-Aug-03 03:34N 37°57' E 023°38'4 4.4
2015-Aug-03 02:33N 37°52' E 023°39'2121.0
2015-Aug-03 01:32N 37°32' E 023°47'2 0.2
2015-Aug-02 10:29N 37°30' E 023°45'2022.1
2015-Aug-02 09:33N 37°49' E 023°36'8 7.7
2015-Aug-02 08:33N 37°57' E 023°38'0 0.0
2015-Aug-02 07:33N 37°57' E 023°38'0 0.0
2015-Aug-02 06:33N 37°57' E 023°38'0 0.0
2015-Aug-02 05:33N 37°57' E 023°38'0 0.0
2015-Aug-02 04:33N 37°57' E 023°38'0 0.0
2015-Aug-02 03:33N 37°57' E 023°38'5 5.2
2015-Aug-02 02:33N 37°52' E 023°39'2020.3
2015-Aug-02 01:33N 37°32' E 023°48'3 0.2
2015-Aug-01 10:30N 37°30' E 023°46'2122.1
2015-Aug-01 09:34N 37°49' E 023°36'8 7.7
2015-Aug-01 08:33N 37°57' E 023°38'0 0.0
2015-Aug-01 07:33N 37°57' E 023°38'0 0.0
2015-Aug-01 06:33N 37°57' E 023°38'0 0.0
2015-Aug-01 05:33N 37°57' E 023°38'0 0.0
2015-Aug-01 04:33N 37°57' E 023°38'0 0.0
2015-Aug-01 03:33N 37°57' E 023°38'4 3.7
2015-Aug-01 02:34N 37°53' E 023°38'2020.4
2015-Aug-01 01:34N 37°34' E 023°47'2120.9
2015-Aug-01 00:33N 37°13' E 023°52'4920.9
2015-Jul-31 22:13N 36°25' E 024°03'1720.9
2015-Jul-31 21:24N 36°08' E 024°07'1820.9
2015-Jul-31 20:33N 35°51' E 024°10'2020.2
2015-Jul-31 19:33N 35°31' E 024°13'9 2.3
2015-Jul-31 15:33N 35°40' E 024°12'2322.5
2015-Jul-31 14:33N 36°02' E 024°07'6722.2
2015-Jul-31 11:33N 37°08' E 023°51'2221.9
2015-Jul-31 10:34N 37°29' E 023°46'2222.0
2015-Jul-31 09:34N 37°49' E 023°37'7 7.5
2015-Jul-31 08:33N 37°57' E 023°38'0 0.0
2015-Jul-31 07:33N 37°57' E 023°38'0 0.0
2015-Jul-31 06:33N 37°57' E 023°38'0 0.0
2015-Jul-31 05:33N 37°57' E 023°38'0 0.0
2015-Jul-31 04:33N 37°57' E 023°38'0 0.0
2015-Jul-31 03:33N 37°57' E 023°38'6 5.7
2015-Jul-31 02:33N 37°51' E 023°39'2221.6
2015-Jul-31 01:33N 37°31' E 023°47'2222.5
2015-Jul-31 00:33N 37°09' E 023°53'2120.8
2015-Jul-30 23:33N 36°48' E 023°58'1515.1
2015-Jul-30 22:34N 36°33' E 024°01'2120.9
2015-Jul-30 21:33N 36°13' E 024°06'2120.6
2015-Jul-30 20:33N 35°52' E 024°09'2220.1
2015-Jul-30 19:29N 35°31' E 024°13'13 3.2
2015-Jul-30 15:18N 35°44' E 024°10'1822.5
2015-Jul-30 14:30N 36°02' E 024°06'2122.5
2015-Jul-30 13:33N 36°23' E 024°02'2722.4
2015-Jul-30 12:21N 36°49' E 023°57'1822.5
2015-Jul-30 11:33N 37°07' E 023°51'2222.1
2015-Jul-30 10:34N 37°28' E 023°46'2222.1
2015-Jul-30 09:34N 37°49' E 023°37'7 7.4
2015-Jul-30 08:33N 37°57' E 023°38'0 0.0
2015-Jul-30 07:33N 37°57' E 023°38'0 0.0
2015-Jul-30 06:33N 37°57' E 023°38'0 0.0
2015-Jul-30 05:33N 37°57' E 023°38'0 0.0
2015-Jul-30 04:33N 37°57' E 023°38'0 0.0
2015-Jul-30 03:33N 37°57' E 023°38'3 2.5
2015-Jul-30 02:33N 37°54' E 023°38'2020.2
2015-Jul-30 01:33N 37°35' E 023°47'2121.2
2015-Jul-30 00:33N 37°14' E 023°51'2121.0
2015-Jul-29 23:33N 36°54' E 023°56'2120.8
2015-Jul-29 22:33N 36°33' E 024°01'2220.8
2015-Jul-29 21:29N 36°11' E 024°06'1920.8
2015-Jul-29 20:33N 35°52' E 024°10'2120.6
2015-Jul-29 19:31N 35°31' E 024°13'4 1.2
2015-Jul-29 16:04N 35°29' E 024°09'1019.2
2015-Jul-29 15:33N 35°38' E 024°12'2222.4
2015-Jul-29 14:33N 36°00' E 024°08'2322.6
2015-Jul-29 13:33N 36°22' E 024°02'2422.4
2015-Jul-29 12:29N 36°46' E 023°57'2122.6
2015-Jul-29 11:33N 37°07' E 023°52'2222.1
2015-Jul-29 10:33N 37°28' E 023°46'2222.1
2015-Jul-29 09:33N 37°49' E 023°37'8 7.9
2015-Jul-29 08:33N 37°57' E 023°38'0 0.0
2015-Jul-29 07:34N 37°57' E 023°38'0 0.0
2015-Jul-29 06:34N 37°57' E 023°38'0 0.0
2015-Jul-29 05:34N 37°57' E 023°38'0 0.0
2015-Jul-29 04:34N 37°57' E 023°38'0 0.0
2015-Jul-29 03:34N 37°57' E 023°38'4 4.3
2015-Jul-29 02:33N 37°53' E 023°38'2020.2
2015-Jul-29 01:34N 37°34' E 023°47'2121.1
2015-Jul-29 00:34N 37°13' E 023°52'2120.9
2015-Jul-28 23:34N 36°52' E 023°57'2120.9
2015-Jul-28 22:34N 36°32' E 024°02'2120.7
2015-Jul-28 21:34N 36°11' E 024°06'2020.4
2015-Jul-28 20:34N 35°51' E 024°10'2020.0
2015-Jul-28 19:34N 35°31' E 024°13'7 0.6
2015-Jul-28 06:23N 35°29' E 024°05'0 0.0
2015-Jul-28 05:33N 35°29' E 024°05'8 2.8
2015-Jul-28 02:33N 35°32' E 024°14'2019.9
2015-Jul-28 01:33N 35°52' E 024°14'2120.9
2015-Jul-28 00:33N 36°12' E 024°07'2120.9
2015-Jul-27 23:32N 36°33' E 024°00'2020.9
2015-Jul-27 22:33N 36°53' E 023°55'2220.9
2015-Jul-27 21:30N 37°14' E 023°49'1920.2
2015-Jul-27 20:33N 37°33' E 023°44'2120.5
2015-Jul-27 19:33N 37°52' E 023°37'5 4.6
2015-Jul-27 18:33N 37°57' E 023°38'0 0.0
2015-Jul-27 17:33N 37°57' E 023°38'0 0.0
2015-Jul-27 16:33N 37°57' E 023°38'0 0.0
2015-Jul-27 15:33N 37°57' E 023°38'0 0.0
2015-Jul-27 14:33N 37°57' E 023°38'0 0.0
2015-Jul-27 13:33N 37°57' E 023°38'0 0.0
2015-Jul-27 12:33N 37°57' E 023°38'0 0.0
2015-Jul-27 11:33N 37°57' E 023°38'0 0.0
2015-Jul-27 10:33N 37°57' E 023°38'0 0.0
2015-Jul-27 09:33N 37°57' E 023°38'0 0.0
2015-Jul-27 08:33N 37°57' E 023°38'0 0.0
2015-Jul-27 07:33N 37°57' E 023°38'0 0.0
2015-Jul-27 06:33N 37°57' E 023°38'0 0.0
2015-Jul-27 05:33N 37°57' E 023°38'0 0.0
2015-Jul-27 04:33N 37°57' E 023°38'0 0.0
2015-Jul-27 03:33N 37°57' E 023°38'3 3.4
2015-Jul-27 02:33N 37°53' E 023°38'2020.3
2015-Jul-27 01:33N 37°34' E 023°47'2121.1
2015-Jul-27 00:33N 37°14' E 023°51'2620.7
2015-Jul-26 23:18N 36°48' E 023°58'1820.7
2015-Jul-26 22:25N 36°30' E 024°02'1820.8
2015-Jul-26 21:33N 36°13' E 024°05'2120.7
2015-Jul-26 20:33N 35°52' E 024°09'2020.3
2015-Jul-26 19:33N 35°32' E 024°13'5 1.4
2015-Jul-26 16:09N 35°29' E 024°09'1219.8
2015-Jul-26 15:33N 35°41' E 024°12'2222.5
2015-Jul-26 14:33N 36°03' E 024°07'2222.1
2015-Jul-26 13:33N 36°24' E 024°02'2222.1
2015-Jul-26 12:33N 36°46' E 023°57'2221.9
2015-Jul-26 11:33N 37°07' E 023°51'2221.5
2015-Jul-26 10:33N 37°28' E 023°46'2221.6
2015-Jul-26 09:34N 37°49' E 023°37'8 8.2
2015-Jul-26 08:33N 37°57' E 023°38'0 0.0
2015-Jul-26 07:33N 37°57' E 023°38'0 0.0
2015-Jul-26 06:33N 37°57' E 023°38'0 0.0
2015-Jul-26 05:33N 37°57' E 023°38'0 0.0
2015-Jul-26 04:33N 37°57' E 023°38'0 0.0
2015-Jul-26 03:33N 37°57' E 023°38'2 2.0
2015-Jul-26 02:33N 37°55' E 023°37'2020.4
2015-Jul-26 01:33N 37°36' E 023°46'2121.3
2015-Jul-26 00:33N 37°15' E 023°51'2221.5
2015-Jul-25 23:33N 36°54' E 023°57'2121.2
2015-Jul-25 22:34N 36°33' E 024°01'2121.2
2015-Jul-25 21:33N 36°12' E 024°05'2120.8
2015-Jul-25 20:31N 35°51' E 024°09'2020.3
2015-Jul-25 19:33N 35°31' E 024°13'4 1.2
2015-Jul-25 16:06N 35°29' E 024°09'1019.1
2015-Jul-25 15:33N 35°39' E 024°12'2422.9
2015-Jul-25 14:31N 36°02' E 024°06'2222.6
2015-Jul-25 13:32N 36°24' E 024°02'4722.2
2015-Jul-25 11:26N 37°10' E 023°51'1921.5
2015-Jul-25 10:33N 37°28' E 023°46'2121.6
2015-Jul-25 09:33N 37°49' E 023°37'8 8.2
2015-Jul-25 08:34N 37°57' E 023°38'0 0.0
2015-Jul-25 07:33N 37°57' E 023°38'0 0.0
2015-Jul-25 06:33N 37°57' E 023°38'0 0.0
2015-Jul-25 05:34N 37°57' E 023°38'0 0.0
2015-Jul-25 04:33N 37°57' E 023°38'0 0.0
2015-Jul-25 03:33N 37°57' E 023°38'4 3.7
2015-Jul-25 02:33N 37°53' E 023°38'2120.5
2015-Jul-25 01:33N 37°34' E 023°47'6920.7
2015-Jul-24 22:12N 36°25' E 024°02'3420.4
2015-Jul-24 20:33N 35°52' E 024°10'2120.3
2015-Jul-24 19:32N 35°32' E 024°13'8 2.0
2015-Jul-24 15:33N 35°39' E 024°11'2222.3
2015-Jul-24 14:33N 36°01' E 024°06'8922.2
2015-Jul-24 10:33N 37°28' E 023°46'2221.7
2015-Jul-24 09:34N 37°49' E 023°37'8 8.1
2015-Jul-24 08:33N 37°57' E 023°38'0 0.0
2015-Jul-24 07:33N 37°57' E 023°38'0 0.0
2015-Jul-24 06:34N 37°57' E 023°38'0 0.0
2015-Jul-24 05:33N 37°57' E 023°38'  
Track history (hours):
 
Tides and Currents Weather Stations Pressure Air Temp Water Temp Dewpoint Dewpoint Depression Visibility Wind Speed Wind Dir Waves Ship Positions

Blue Galaxy

Last reported at 2015-Aug-03 04:34 UTC. Time now 2015-Aug-03 04:35 UTC.
Position N 37°57' E 023°38'.

Length 192 m; draft 6.7 m.

Type: Passenger vessel. MMSI: 239672000.

Date/timePositionNaut miles runAvg speedWind from/ knotsBaromVisibWave heightAir tempDewpointWater temp
2015-Aug-03 04:34N 37°57' E 023°38'0 0.0
2015-Aug-03 03:34N 37°57' E 023°38'4 4.4
2015-Aug-03 02:33N 37°52' E 023°39'2121.0
2015-Aug-03 01:32N 37°32' E 023°47'2 0.2
2015-Aug-02 10:29N 37°30' E 023°45'2022.1
2015-Aug-02 09:33N 37°49' E 023°36'8 7.7
2015-Aug-02 08:33N 37°57' E 023°38'0 0.0
2015-Aug-02 07:33N 37°57' E 023°38'0 0.0
2015-Aug-02 06:33N 37°57' E 023°38'0 0.0
2015-Aug-02 05:33N 37°57' E 023°38'0 0.0
2015-Aug-02 04:33N 37°57' E 023°38'0 0.0
2015-Aug-02 03:33N 37°57' E 023°38'5 5.2
2015-Aug-02 02:33N 37°52' E 023°39'2020.3
2015-Aug-02 01:33N 37°32' E 023°48'3 0.2
2015-Aug-01 10:30N 37°30' E 023°46'2122.1
2015-Aug-01 09:34N 37°49' E 023°36'8 7.7
2015-Aug-01 08:33N 37°57' E 023°38'0 0.0
2015-Aug-01 07:33N 37°57' E 023°38'0 0.0
2015-Aug-01 06:33N 37°57' E 023°38'0 0.0
2015-Aug-01 05:33N 37°57' E 023°38'0 0.0
2015-Aug-01 04:33N 37°57' E 023°38'0 0.0
2015-Aug-01 03:33N 37°57' E 023°38'4 3.7
2015-Aug-01 02:34N 37°53' E 023°38'2020.4
2015-Aug-01 01:34N 37°34' E 023°47'2120.9
2015-Aug-01 00:33N 37°13' E 023°52'4920.9
2015-Jul-31 22:13N 36°25' E 024°03'1720.9
2015-Jul-31 21:24N 36°08' E 024°07'1820.9
2015-Jul-31 20:33N 35°51' E 024°10'2020.2
2015-Jul-31 19:33N 35°31' E 024°13'9 2.3
2015-Jul-31 15:33N 35°40' E 024°12'2322.5
2015-Jul-31 14:33N 36°02' E 024°07'6722.2
2015-Jul-31 11:33N 37°08' E 023°51'2221.9
2015-Jul-31 10:34N 37°29' E 023°46'2222.0
2015-Jul-31 09:34N 37°49' E 023°37'7 7.5
2015-Jul-31 08:33N 37°57' E 023°38'0 0.0
2015-Jul-31 07:33N 37°57' E 023°38'0 0.0
2015-Jul-31 06:33N 37°57' E 023°38'0 0.0
2015-Jul-31 05:33N 37°57' E 023°38'0 0.0
2015-Jul-31 04:33N 37°57' E 023°38'0 0.0
2015-Jul-31 03:33N 37°57' E 023°38'6 5.7
2015-Jul-31 02:33N 37°51' E 023°39'2221.6
2015-Jul-31 01:33N 37°31' E 023°47'2222.5
2015-Jul-31 00:33N 37°09' E 023°53'2120.8
2015-Jul-30 23:33N 36°48' E 023°58'1515.1
2015-Jul-30 22:34N 36°33' E 024°01'2120.9
2015-Jul-30 21:33N 36°13' E 024°06'2120.6
2015-Jul-30 20:33N 35°52' E 024°09'2220.1
2015-Jul-30 19:29N 35°31' E 024°13'13 3.2
2015-Jul-30 15:18N 35°44' E 024°10'1822.5
2015-Jul-30 14:30N 36°02' E 024°06'2122.5
2015-Jul-30 13:33N 36°23' E 024°02'2722.4
2015-Jul-30 12:21N 36°49' E 023°57'1822.5
2015-Jul-30 11:33N 37°07' E 023°51'2222.1
2015-Jul-30 10:34N 37°28' E 023°46'2222.1
2015-Jul-30 09:34N 37°49' E 023°37'7 7.4
2015-Jul-30 08:33N 37°57' E 023°38'0 0.0
2015-Jul-30 07:33N 37°57' E 023°38'0 0.0
2015-Jul-30 06:33N 37°57' E 023°38'0 0.0
2015-Jul-30 05:33N 37°57' E 023°38'0 0.0
2015-Jul-30 04:33N 37°57' E 023°38'0 0.0
2015-Jul-30 03:33N 37°57' E 023°38'3 2.5
2015-Jul-30 02:33N 37°54' E 023°38'2020.2
2015-Jul-30 01:33N 37°35' E 023°47'2121.2
2015-Jul-30 00:33N 37°14' E 023°51'2121.0
2015-Jul-29 23:33N 36°54' E 023°56'2120.8
2015-Jul-29 22:33N 36°33' E 024°01'2220.8
2015-Jul-29 21:29N 36°11' E 024°06'1920.8
2015-Jul-29 20:33N 35°52' E 024°10'2120.6
2015-Jul-29 19:31N 35°31' E 024°13'4 1.2
2015-Jul-29 16:04N 35°29' E 024°09'1019.2
2015-Jul-29 15:33N 35°38' E 024°12'2222.4
2015-Jul-29 14:33N 36°00' E 024°08'2322.6
2015-Jul-29 13:33N 36°22' E 024°02'2422.4
2015-Jul-29 12:29N 36°46' E 023°57'2122.6
2015-Jul-29 11:33N 37°07' E 023°52'2222.1
2015-Jul-29 10:33N 37°28' E 023°46'2222.1
2015-Jul-29 09:33N 37°49' E 023°37'8 7.9
2015-Jul-29 08:33N 37°57' E 023°38'0 0.0
2015-Jul-29 07:34N 37°57' E 023°38'0 0.0
2015-Jul-29 06:34N 37°57' E 023°38'0 0.0
2015-Jul-29 05:34N 37°57' E 023°38'0 0.0
2015-Jul-29 04:34N 37°57' E 023°38'0 0.0
2015-Jul-29 03:34N 37°57' E 023°38'4 4.3
2015-Jul-29 02:33N 37°53' E 023°38'2020.2
2015-Jul-29 01:34N 37°34' E 023°47'2121.1
2015-Jul-29 00:34N 37°13' E 023°52'2120.9
2015-Jul-28 23:34N 36°52' E 023°57'2120.9
2015-Jul-28 22:34N 36°32' E 024°02'2120.7
2015-Jul-28 21:34N 36°11' E 024°06'2020.4
2015-Jul-28 20:34N 35°51' E 024°10'2020.0
2015-Jul-28 19:34N 35°31' E 024°13'7 0.6
2015-Jul-28 06:23N 35°29' E 024°05'0 0.0
2015-Jul-28 05:33N 35°29' E 024°05'8 2.8
2015-Jul-28 02:33N 35°32' E 024°14'2019.9
2015-Jul-28 01:33N 35°52' E 024°14'2120.9
2015-Jul-28 00:33N 36°12' E 024°07'2120.9
2015-Jul-27 23:32N 36°33' E 024°00'2020.9
2015-Jul-27 22:33N 36°53' E 023°55'2220.9
2015-Jul-27 21:30N 37°14' E 023°49'1920.2
2015-Jul-27 20:33N 37°33' E 023°44'2120.5
2015-Jul-27 19:33N 37°52' E 023°37'5 4.6
2015-Jul-27 18:33N 37°57' E 023°38'0 0.0
2015-Jul-27 17:33N 37°57' E 023°38'0 0.0
2015-Jul-27 16:33N 37°57' E 023°38'0 0.0
2015-Jul-27 15:33N 37°57' E 023°38'0 0.0
2015-Jul-27 14:33N 37°57' E 023°38'0 0.0
2015-Jul-27 13:33N 37°57' E 023°38'0 0.0
2015-Jul-27 12:33N 37°57' E 023°38'0 0.0
2015-Jul-27 11:33N 37°57' E 023°38'0 0.0
2015-Jul-27 10:33N 37°57' E 023°38'0 0.0
2015-Jul-27 09:33N 37°57' E 023°38'0 0.0
2015-Jul-27 08:33N 37°57' E 023°38'0 0.0
2015-Jul-27 07:33N 37°57' E 023°38'0 0.0
2015-Jul-27 06:33N 37°57' E 023°38'0 0.0
2015-Jul-27 05:33N 37°57' E 023°38'0 0.0
2015-Jul-27 04:33N 37°57' E 023°38'0 0.0
2015-Jul-27 03:33N 37°57' E 023°38'3 3.4
2015-Jul-27 02:33N 37°53' E 023°38'2020.3
2015-Jul-27 01:33N 37°34' E 023°47'2121.1
2015-Jul-27 00:33N 37°14' E 023°51'2620.7
2015-Jul-26 23:18N 36°48' E 023°58'1820.7
2015-Jul-26 22:25N 36°30' E 024°02'1820.8
2015-Jul-26 21:33N 36°13' E 024°05'2120.7
2015-Jul-26 20:33N 35°52' E 024°09'2020.3
2015-Jul-26 19:33N 35°32' E 024°13'5 1.4
2015-Jul-26 16:09N 35°29' E 024°09'1219.8
2015-Jul-26 15:33N 35°41' E 024°12'2222.5
2015-Jul-26 14:33N 36°03' E 024°07'2222.1
2015-Jul-26 13:33N 36°24' E 024°02'2222.1
2015-Jul-26 12:33N 36°46' E 023°57'2221.9
2015-Jul-26 11:33N 37°07' E 023°51'2221.5
2015-Jul-26 10:33N 37°28' E 023°46'2221.6
2015-Jul-26 09:34N 37°49' E 023°37'8 8.2
2015-Jul-26 08:33N 37°57' E 023°38'0 0.0
2015-Jul-26 07:33N 37°57' E 023°38'0 0.0
2015-Jul-26 06:33N 37°57' E 023°38'0 0.0
2015-Jul-26 05:33N 37°57' E 023°38'0 0.0
2015-Jul-26 04:33N 37°57' E 023°38'0 0.0
2015-Jul-26 03:33N 37°57' E 023°38'2 2.0
2015-Jul-26 02:33N 37°55' E 023°37'2020.4
2015-Jul-26 01:33N 37°36' E 023°46'2121.3
2015-Jul-26 00:33N 37°15' E 023°51'2221.5
2015-Jul-25 23:33N 36°54' E 023°57'2121.2
2015-Jul-25 22:34N 36°33' E 024°01'2121.2
2015-Jul-25 21:33N 36°12' E 024°05'2120.8
2015-Jul-25 20:31N 35°51' E 024°09'2020.3
2015-Jul-25 19:33N 35°31' E 024°13'4 1.2
2015-Jul-25 16:06N 35°29' E 024°09'1019.1
2015-Jul-25 15:33N 35°39' E 024°12'2422.9
2015-Jul-25 14:31N 36°02' E 024°06'2222.6
2015-Jul-25 13:32N 36°24' E 024°02'4722.2
2015-Jul-25 11:26N 37°10' E 023°51'1921.5
2015-Jul-25 10:33N 37°28' E 023°46'2121.6
2015-Jul-25 09:33N 37°49' E 023°37'8 8.2
2015-Jul-25 08:34N 37°57' E 023°38'0 0.0
2015-Jul-25 07:33N 37°57' E 023°38'0 0.0
2015-Jul-25 06:33N 37°57' E 023°38'0 0.0
2015-Jul-25 05:34N 37°57' E 023°38'0 0.0
2015-Jul-25 04:33N 37°57' E 023°38'0 0.0
2015-Jul-25 03:33N 37°57' E 023°38'4 3.7
2015-Jul-25 02:33N 37°53' E 023°38'2120.5
2015-Jul-25 01:33N 37°34' E 023°47'6920.7
2015-Jul-24 22:12N 36°25' E 024°02'3420.4
2015-Jul-24 20:33N 35°52' E 024°10'2120.3
2015-Jul-24 19:32N 35°32' E 024°13'8 2.0
2015-Jul-24 15:33N 35°39' E 024°11'2222.3
2015-Jul-24 14:33N 36°01' E 024°06'8922.2
2015-Jul-24 10:33N 37°28' E 023°46'2221.7
2015-Jul-24 09:34N 37°49' E 023°37'8 8.1
2015-Jul-24 08:33N 37°57' E 023°38'0 0.0
2015-Jul-24 07:33N 37°57' E 023°38'0 0.0
2015-Jul-24 06:34N 37°57' E 023°38'0 0.0
2015-Jul-24 05:33N 37°57' E 023°38'  

Dump ship's entire track history